Time,TemperatureF,DewpointF,PressureIn,WindDirection,WindDirectionDegrees,WindSpeedMPH,WindSpeedGustMPH,Humidity,HourlyPrecipIn,Conditions,Clouds,dailyrainin,SoftwareType,DateUTC
2013-06-05 00:00:00,61.9,60.5,29.98,SSE,149,0.0,6.0,95,0.00,,,0.15,Wunderground v.1.15,2013-06-05 05:00:00,
2013-06-05 00:06:00,61.8,60.6,29.98,SSE,150,0.0,6.0,96,0.00,,,0.15,Wunderground v.1.15,2013-06-05 05:06:00,
2013-06-05 00:12:00,61.8,60.6,29.98,SSE,150,0.0,6.0,96,0.00,,,0.15,Wunderground v.1.15,2013-06-05 05:12:00,
2013-06-05 00:17:00,61.8,60.6,29.98,SSE,149,0.0,6.0,96,0.00,,,0.15,Wunderground v.1.15,2013-06-05 05:17:00,
2013-06-05 00:23:00,61.8,60.6,29.98,SSE,149,0.0,6.0,96,0.00,,,0.15,Wunderground v.1.15,2013-06-05 05:23:00,
2013-06-05 00:28:00,61.7,60.5,29.98,SSE,149,0.0,6.0,96,0.00,,,0.15,Wunderground v.1.15,2013-06-05 05:28:00,
2013-06-05 00:34:00,61.6,60.4,29.98,SE,124,0.0,6.0,96,0.00,,,0.16,Wunderground v.1.15,2013-06-05 05:34:00,
2013-06-05 00:40:00,61.6,60.4,29.99,SE,135,0.0,6.0,96,0.00,,,0.16,Wunderground v.1.15,2013-06-05 05:40:00,
2013-06-05 00:46:00,61.6,60.4,29.99,SE,135,0.0,6.0,96,0.25,,,0.18,Wunderground v.1.15,2013-06-05 05:46:00,
2013-06-05 00:51:00,61.5,60.3,30.00,SE,128,0.0,6.0,96,0.87,,,0.21,Wunderground v.1.15,2013-06-05 05:51:00,
2013-06-05 00:56:00,61.4,60.2,30.00,ENE,57,1.0,6.0,96,3.92,,,0.40,Wunderground v.1.15,2013-06-05 05:56:00,
2013-06-05 01:02:00,61.3,60.2,29.99,SE,132,1.0,6.0,96,2.52,,,0.78,Wunderground v.1.15,2013-06-05 06:02:00,
2013-06-05 01:08:00,61.2,60.1,29.99,SE,132,0.0,6.0,96,0.46,,,0.86,Wunderground v.1.15,2013-06-05 06:08:00,
2013-06-05 01:14:00,61.1,60.0,29.99,SE,132,0.0,6.0,96,0.10,,,0.86,Wunderground v.1.15,2013-06-05 06:14:00,
2013-06-05 01:20:00,61.1,60.0,29.99,SE,132,0.0,6.0,96,0.05,,,0.86,Wunderground v.1.15,2013-06-05 06:20:00,
2013-06-05 01:26:00,61.0,60.1,29.98,SE,132,0.0,6.0,97,0.00,,,0.00,Wunderground v.1.15,2013-06-05 06:26:00,
2013-06-05 01:32:00,61.0,60.1,29.98,SE,132,0.0,6.0,97,0.00,,,0.00,Wunderground v.1.15,2013-06-05 06:32:00,
2013-06-05 01:38:00,61.0,60.1,29.97,SE,133,0.0,6.0,97,0.00,,,0.00,Wunderground v.1.15,2013-06-05 06:38:00,
2013-06-05 01:44:00,60.9,60.0,29.97,SE,141,0.0,6.0,97,0.00,,,0.00,Wunderground v.1.15,2013-06-05 06:44:00,
2013-06-05 01:49:00,60.9,60.0,29.97,SE,140,0.0,6.0,97,0.00,,,0.00,Wunderground v.1.15,2013-06-05 06:49:00,
2013-06-05 01:55:00,60.9,60.0,29.96,SE,139,0.0,6.0,97,0.00,,,0.00,Wunderground v.1.15,2013-06-05 06:55:00,
2013-06-05 02:00:00,60.9,60.0,29.96,SE,140,0.0,6.0,97,0.00,,,0.00,Wunderground v.1.15,2013-06-05 07:00:00,
2013-06-05 02:05:00,60.8,59.9,29.96,SE,139,0.0,6.0,97,0.00,,,0.00,Wunderground v.1.15,2013-06-05 07:05:00,
2013-06-05 02:11:00,60.8,59.9,29.96,SE,140,0.0,6.0,97,0.00,,,0.00,Wunderground v.1.15,2013-06-05 07:11:00,
2013-06-05 02:17:00,60.8,59.9,29.96,SE,139,0.0,6.0,97,0.00,,,0.00,Wunderground v.1.15,2013-06-05 07:17:00,
2013-06-05 02:23:00,60.8,59.9,29.96,SE,139,0.0,6.0,97,0.00,,,0.00,Wunderground v.1.15,2013-06-05 07:23:00,
2013-06-05 02:29:00,60.8,59.9,29.96,SE,139,0.0,6.0,97,0.00,,,0.00,Wunderground v.1.15,2013-06-05 07:29:00,
2013-06-05 02:35:00,60.8,59.9,29.96,SE,139,0.0,6.0,97,0.00,,,0.00,Wunderground v.1.15,2013-06-05 07:35:00,
2013-06-05 02:40:00,60.8,59.9,29.96,SE,140,0.0,6.0,97,0.00,,,0.00,Wunderground v.1.15,2013-06-05 07:40:00,
2013-06-05 02:46:00,60.8,59.9,29.97,SE,140,0.0,6.0,97,0.00,,,0.00,Wunderground v.1.15,2013-06-05 07:46:00,
2013-06-05 02:52:00,60.8,59.9,29.97,SE,140,0.0,6.0,97,0.00,,,0.00,Wunderground v.1.15,2013-06-05 07:52:00,
2013-06-05 02:58:00,60.9,60.0,29.97,SE,140,0.0,6.0,97,0.00,,,0.00,Wunderground v.1.15,2013-06-05 07:58:00,
2013-06-05 03:03:00,60.9,60.0,29.97,SE,140,0.0,6.0,97,0.00,,,0.00,Wunderground v.1.15,2013-06-05 08:03:00,
2013-06-05 03:09:00,60.8,59.9,29.96,SE,140,0.0,6.0,97,0.00,,,0.00,Wunderground v.1.15,2013-06-05 08:09:00,
2013-06-05 03:15:00,60.8,59.9,29.96,SE,140,0.0,6.0,97,0.00,,,0.00,Wunderground v.1.15,2013-06-05 08:15:00,
2013-06-05 03:22:00,60.7,59.8,29.95,SE,139,0.0,6.0,97,0.00,,,0.00,Wunderground v.1.15,2013-06-05 08:22:00,
2013-06-05 03:27:00,60.8,59.9,29.96,SE,140,0.0,6.0,97,0.00,,,0.00,Wunderground v.1.15,2013-06-05 08:27:00,
2013-06-05 03:33:00,60.8,59.9,29.96,SE,139,0.0,6.0,97,0.00,,,0.00,Wunderground v.1.15,2013-06-05 08:33:00,
2013-06-05 03:39:00,60.7,59.8,29.96,SE,139,0.0,6.0,97,0.00,,,0.00,Wunderground v.1.15,2013-06-05 08:39:00,
2013-06-05 03:45:00,60.8,59.9,29.96,SE,139,0.0,6.0,97,0.00,,,0.00,Wunderground v.1.15,2013-06-05 08:45:00,
2013-06-05 03:51:00,60.7,59.8,29.96,SE,140,0.0,6.0,97,0.00,,,0.00,Wunderground v.1.15,2013-06-05 08:51:00,
2013-06-05 03:57:00,60.7,59.8,29.96,SE,139,0.0,6.0,97,0.00,,,0.00,Wunderground v.1.15,2013-06-05 08:57:00,
2013-06-05 04:02:00,60.7,59.8,29.96,SE,138,0.0,6.0,97,0.00,,,0.00,Wunderground v.1.15,2013-06-05 09:02:00,
2013-06-05 04:08:00,60.7,59.8,29.96,SE,138,0.0,6.0,97,0.00,,,0.00,Wunderground v.1.15,2013-06-05 09:08:00,
2013-06-05 04:13:00,60.7,59.8,29.96,SE,139,0.0,6.0,97,0.00,,,0.00,Wunderground v.1.15,2013-06-05 09:13:00,
2013-06-05 04:18:00,60.7,59.8,29.96,SE,138,0.0,6.0,97,0.00,,,0.00,Wunderground v.1.15,2013-06-05 09:18:00,
2013-06-05 04:24:00,60.7,59.8,29.96,SE,139,0.0,6.0,97,0.00,,,0.00,Wunderground v.1.15,2013-06-05 09:24:00,
2013-06-05 04:29:00,60.6,59.7,29.96,SE,139,0.0,6.0,97,0.00,,,0.00,Wunderground v.1.15,2013-06-05 09:29:00,
2013-06-05 04:35:00,60.6,59.7,29.96,SE,139,0.0,6.0,97,0.00,,,0.00,Wunderground v.1.15,2013-06-05 09:35:00,
2013-06-05 04:41:00,60.6,59.7,29.95,SE,139,0.0,6.0,97,0.00,,,0.00,Wunderground v.1.15,2013-06-05 09:41:00,
2013-06-05 04:47:00,60.5,59.6,29.95,SE,139,0.0,6.0,97,0.00,,,0.00,Wunderground v.1.15,2013-06-05 09:47:00,
2013-06-05 04:52:00,60.5,59.6,29.95,SE,138,0.0,6.0,97,0.00,,,0.00,Wunderground v.1.15,2013-06-05 09:52:00,
2013-06-05 04:57:00,60.5,59.6,29.95,SE,138,0.0,6.0,97,0.00,,,0.00,Wunderground v.1.15,2013-06-05 09:57:00,
2013-06-05 05:02:00,60.4,59.5,29.95,SE,138,0.0,6.0,97,0.00,,,0.00,Wunderground v.1.15,2013-06-05 10:02:00,
2013-06-05 05:08:00,60.4,59.5,29.94,SE,139,0.0,6.0,97,0.00,,,0.00,Wunderground v.1.15,2013-06-05 10:08:00,
2013-06-05 05:14:00,60.3,59.4,29.95,SE,139,0.0,6.0,97,0.00,,,0.00,Wunderground v.1.15,2013-06-05 10:14:00,
2013-06-05 05:20:00,60.3,59.4,29.96,SE,140,0.0,6.0,97,0.00,,,0.00,Wunderground v.1.15,2013-06-05 10:20:00,
2013-06-05 05:25:00,60.2,59.3,29.96,SE,139,0.0,6.0,97,0.00,,,0.00,Wunderground v.1.15,2013-06-05 10:25:00,
2013-06-05 05:32:00,60.1,59.2,29.96,SE,139,0.0,6.0,97,0.00,,,0.00,Wunderground v.1.15,2013-06-05 10:32:00,
2013-06-05 05:38:00,60.2,59.3,29.96,SE,140,0.0,6.0,97,0.00,,,0.00,Wunderground v.1.15,2013-06-05 10:38:00,
2013-06-05 05:44:00,60.2,59.3,29.95,SE,140,0.0,6.0,97,0.00,,,0.00,Wunderground v.1.15,2013-06-05 10:44:00,
2013-06-05 05:49:00,60.2,59.3,29.95,SE,139,0.0,6.0,97,0.00,,,0.00,Wunderground v.1.15,2013-06-05 10:49:00,
2013-06-05 05:54:00,60.3,59.4,29.95,SE,139,0.0,6.0,97,0.00,,,0.00,Wunderground v.1.15,2013-06-05 10:54:00,
2013-06-05 06:00:00,60.3,59.4,29.95,SE,140,0.0,6.0,97,0.00,,,0.00,Wunderground v.1.15,2013-06-05 11:00:00,
2013-06-05 06:05:00,60.3,59.4,29.95,SE,140,0.0,6.0,97,0.00,,,0.00,Wunderground v.1.15,2013-06-05 11:05:00,
2013-06-05 06:11:00,60.4,59.5,29.95,SE,139,0.0,6.0,97,0.00,,,0.00,Wunderground v.1.15,2013-06-05 11:11:00,
2013-06-05 06:17:00,60.4,59.5,29.95,SE,139,0.0,6.0,97,0.00,,,0.00,Wunderground v.1.15,2013-06-05 11:17:00,
2013-06-05 06:23:00,60.4,59.5,29.95,SSE,148,0.0,6.0,97,0.00,,,0.00,Wunderground v.1.15,2013-06-05 11:23:00,
2013-06-05 06:28:00,60.5,59.6,29.96,SSE,148,0.0,6.0,97,0.00,,,0.00,Wunderground v.1.15,2013-06-05 11:28:00,
2013-06-05 06:34:00,60.5,59.6,29.96,SSE,148,0.0,6.0,97,0.00,,,0.00,Wunderground v.1.15,2013-06-05 11:34:00,
2013-06-05 06:40:00,60.5,59.6,29.96,SSE,148,0.0,6.0,97,0.00,,,0.01,Wunderground v.1.15,2013-06-05 11:40:00,
2013-06-05 06:46:00,60.6,59.7,29.96,SSE,148,0.0,6.0,97,0.75,,,0.05,Wunderground v.1.15,2013-06-05 11:46:00,
2013-06-05 06:52:00,60.5,59.6,29.96,SSE,149,1.0,6.0,97,0.21,,,0.07,Wunderground v.1.15,2013-06-05 11:52:00,
2013-06-05 06:57:00,60.5,59.6,29.95,South,186,1.0,6.0,97,0.07,,,0.07,Wunderground v.1.15,2013-06-05 11:57:00,
2013-06-05 07:02:00,60.4,59.5,29.95,SSE,164,1.0,6.0,97,0.05,,,0.07,Wunderground v.1.15,2013-06-05 12:02:00,
2013-06-05 07:08:00,60.4,59.5,29.95,South,188,1.0,6.0,97,0.16,,,0.09,Wunderground v.1.15,2013-06-05 12:08:00,
2013-06-05 07:13:00,60.4,59.8,29.95,SSE,153,0.0,6.0,98,0.07,,,0.09,Wunderground v.1.15,2013-06-05 12:13:00,
2013-06-05 07:19:00,60.4,59.8,29.95,SSE,154,0.0,6.0,98,0.05,,,0.10,Wunderground v.1.15,2013-06-05 12:19:00,
2013-06-05 07:25:00,60.4,59.8,29.95,SSE,153,0.0,6.0,98,0.05,,,0.10,Wunderground v.1.15,2013-06-05 12:25:00,
2013-06-05 07:31:00,60.4,59.8,29.94,SSE,154,0.0,6.0,98,0.05,,,0.11,Wunderground v.1.15,2013-06-05 12:31:00,
2013-06-05 07:36:00,60.4,59.8,29.94,SSE,154,0.0,6.0,98,0.05,,,0.11,Wunderground v.1.15,2013-06-05 12:36:00,
2013-06-05 07:41:00,60.4,59.8,29.93,SSE,154,0.0,6.0,98,0.05,,,0.12,Wunderground v.1.15,2013-06-05 12:41:00,
2013-06-05 07:47:00,60.5,59.9,29.93,SSE,154,0.0,6.0,98,0.05,,,0.12,Wunderground v.1.15,2013-06-05 12:47:00,
2013-06-05 07:52:00,60.5,59.9,29.93,SSE,153,0.0,6.0,98,0.04,,,0.12,Wunderground v.1.15,2013-06-05 12:52:00,
2013-06-05 07:58:00,60.5,59.9,29.94,SSE,168,0.0,6.0,98,0.00,,,0.12,Wunderground v.1.15,2013-06-05 12:58:00,
2013-06-05 08:04:00,60.6,60.0,29.93,SSE,168,0.0,6.0,98,0.00,,,0.12,Wunderground v.1.15,2013-06-05 13:04:00,
2013-06-05 08:09:00,60.8,60.2,29.93,SSE,168,0.0,6.0,98,0.00,,,0.12,Wunderground v.1.15,2013-06-05 13:09:00,
2013-06-05 08:16:00,61.0,60.4,29.93,SSE,167,0.0,6.0,98,0.00,,,0.12,Wunderground v.1.15,2013-06-05 13:16:00,
2013-06-05 08:21:00,61.2,60.6,29.94,SSE,167,0.0,6.0,98,0.00,,,0.12,Wunderground v.1.15,2013-06-05 13:21:00,
2013-06-05 08:26:00,61.4,60.8,29.94,SSE,167,0.0,6.0,98,0.00,,,0.12,Wunderground v.1.15,2013-06-05 13:26:00,
2013-06-05 08:32:00,61.5,60.9,29.94,SSE,167,0.0,6.0,98,0.00,,,0.12,Wunderground v.1.15,2013-06-05 13:32:00,
2013-06-05 08:38:00,61.5,60.6,29.94,SSE,167,0.0,6.0,97,0.00,,,0.12,Wunderground v.1.15,2013-06-05 13:38:00,
2013-06-05 08:43:00,61.6,61.0,29.95,SSE,167,0.0,6.0,98,0.00,,,0.12,Wunderground v.1.15,2013-06-05 13:43:00,
2013-06-05 08:49:00,61.9,61.3,29.95,SE,143,0.0,6.0,98,0.00,,,0.12,Wunderground v.1.15,2013-06-05 13:49:00,
2013-06-05 08:55:00,62.0,61.4,29.96,SE,143,0.0,6.0,98,0.00,,,0.12,Wunderground v.1.15,2013-06-05 13:55:00,
2013-06-05 09:00:00,61.9,61.0,29.96,SE,143,0.0,6.0,97,0.00,,,0.12,Wunderground v.1.15,2013-06-05 14:00:00,
2013-06-05 09:05:00,61.8,60.9,29.96,ESE,115,0.0,6.0,97,0.00,,,0.12,Wunderground v.1.15,2013-06-05 14:05:00,
2013-06-05 09:11:00,61.7,60.8,29.96,ESE,115,0.0,6.0,97,0.00,,,0.12,Wunderground v.1.15,2013-06-05 14:11:00,
2013-06-05 09:16:00,61.8,60.9,29.95,ESE,115,0.0,6.0,97,0.00,,,0.12,Wunderground v.1.15,2013-06-05 14:16:00,
2013-06-05 09:21:00,61.8,60.9,29.95,ESE,116,0.0,6.0,97,0.00,,,0.12,Wunderground v.1.15,2013-06-05 14:21:00,
2013-06-05 09:26:00,61.7,60.8,29.95,ESE,116,0.0,6.0,97,0.00,,,0.12,Wunderground v.1.15,2013-06-05 14:26:00,
2013-06-05 09:32:00,62.0,61.4,29.96,ESE,116,0.0,6.0,98,0.00,,,0.12,Wunderground v.1.15,2013-06-05 14:32:00,
2013-06-05 09:38:00,62.3,61.7,29.96,ESE,115,0.0,6.0,98,0.00,,,0.12,Wunderground v.1.15,2013-06-05 14:38:00,
2013-06-05 09:43:00,62.2,61.3,29.96,ESE,110,0.0,6.0,97,0.00,,,0.12,Wunderground v.1.15,2013-06-05 14:43:00,
2013-06-05 09:49:00,62.3,61.4,29.96,ESE,110,0.0,6.0,97,0.00,,,0.12,Wunderground v.1.15,2013-06-05 14:49:00,
2013-06-05 09:55:00,62.1,61.2,29.96,ESE,110,0.0,6.0,97,0.00,,,0.12,Wunderground v.1.15,2013-06-05 14:55:00,
2013-06-05 10:01:00,62.2,61.3,29.96,ESE,107,0.0,6.0,97,0.00,,,0.12,Wunderground v.1.15,2013-06-05 15:01:00,
2013-06-05 10:06:00,62.1,61.2,29.96,ESE,106,0.0,6.0,97,0.00,,,0.12,Wunderground v.1.15,2013-06-05 15:06:00,
2013-06-05 10:12:00,62.1,61.2,29.96,ESE,103,1.0,6.0,97,0.00,,,0.12,Wunderground v.1.15,2013-06-05 15:12:00,
2013-06-05 10:18:00,62.1,61.2,29.96,East,100,1.0,6.0,97,0.00,,,0.12,Wunderground v.1.15,2013-06-05 15:18:00,
2013-06-05 10:24:00,62.0,61.1,29.97,East,96,1.0,6.0,97,0.00,,,0.12,Wunderground v.1.15,2013-06-05 15:24:00,
2013-06-05 10:29:00,61.8,60.9,29.97,ESE,117,2.0,6.0,97,0.00,,,0.12,Wunderground v.1.15,2013-06-05 15:29:00,
2013-06-05 10:35:00,61.8,60.9,29.97,ESE,105,1.0,6.0,97,0.00,,,0.12,Wunderground v.1.15,2013-06-05 15:35:00,
2013-06-05 10:40:00,61.8,60.9,29.97,East,99,1.0,6.0,97,0.00,,,0.12,Wunderground v.1.15,2013-06-05 15:40:00,
2013-06-05 10:46:00,61.9,61.0,29.97,SE,139,1.0,6.0,97,0.00,,,0.12,Wunderground v.1.15,2013-06-05 15:46:00,
2013-06-05 10:52:00,62.0,61.1,29.97,SE,146,1.0,6.0,97,0.00,,,0.12,Wunderground v.1.15,2013-06-05 15:52:00,
2013-06-05 10:58:00,62.0,61.1,29.97,East,94,1.0,6.0,97,0.00,,,0.12,Wunderground v.1.15,2013-06-05 15:58:00,
2013-06-05 11:04:00,62.0,61.1,29.97,SSE,152,2.0,6.0,97,0.00,,,0.12,Wunderground v.1.15,2013-06-05 16:04:00,
2013-06-05 11:10:00,62.2,61.3,29.97,ESE,111,2.0,6.0,97,0.00,,,0.13,Wunderground v.1.15,2013-06-05 16:10:00,
2013-06-05 11:15:00,62.2,61.0,29.97,ESE,110,2.0,6.0,96,0.00,,,0.13,Wunderground v.1.15,2013-06-05 16:15:00,
2013-06-05 11:21:00,62.2,61.0,29.97,ESE,114,2.0,6.0,96,0.00,,,0.13,Wunderground v.1.15,2013-06-05 16:21:00,
2013-06-05 11:27:00,62.4,60.9,29.97,SE,146,2.0,6.0,95,0.00,,,0.13,Wunderground v.1.15,2013-06-05 16:27:00,
2013-06-05 11:33:00,62.7,61.2,29.97,SE,128,2.0,6.0,95,0.00,,,0.13,Wunderground v.1.15,2013-06-05 16:33:00,
2013-06-05 11:38:00,63.0,61.5,29.97,East,90,1.0,6.0,95,0.00,,,0.13,Wunderground v.1.15,2013-06-05 16:38:00,
2013-06-05 11:43:00,62.9,60.8,29.97,East,101,2.0,6.0,93,0.00,,,0.13,Wunderground v.1.15,2013-06-05 16:43:00,
2013-06-05 11:49:00,63.0,60.9,29.97,SE,140,2.0,6.0,93,0.00,,,0.13,Wunderground v.1.15,2013-06-05 16:49:00,
2013-06-05 11:55:00,63.0,60.9,29.97,East,85,2.0,6.0,93,0.00,,,0.13,Wunderground v.1.15,2013-06-05 16:55:00,
2013-06-05 12:00:00,63.1,61.0,29.97,East,99,2.0,6.0,93,0.00,,,0.13,Wunderground v.1.15,2013-06-05 17:00:00,
2013-06-05 12:06:00,63.1,60.7,29.97,South,169,2.0,6.0,92,0.00,,,0.13,Wunderground v.1.15,2013-06-05 17:06:00,
2013-06-05 12:12:00,63.2,60.8,29.97,SE,146,1.0,6.0,92,0.00,,,0.13,Wunderground v.1.15,2013-06-05 17:12:00,
2013-06-05 12:18:00,63.5,61.4,29.97,ESE,107,1.0,6.0,93,0.00,,,0.13,Wunderground v.1.15,2013-06-05 17:18:00,
2013-06-05 12:24:00,63.5,60.8,29.97,SE,137,1.0,6.0,91,0.00,,,0.13,Wunderground v.1.15,2013-06-05 17:24:00,
2013-06-05 12:30:00,63.6,60.9,29.97,East,99,2.0,6.0,91,0.00,,,0.13,Wunderground v.1.15,2013-06-05 17:30:00,
2013-06-05 12:36:00,63.5,60.5,29.97,SE,142,2.0,6.0,90,0.00,,,0.13,Wunderground v.1.15,2013-06-05 17:36:00,
2013-06-05 12:42:00,63.6,60.6,29.97,SE,133,2.0,6.0,90,0.00,,,0.13,Wunderground v.1.15,2013-06-05 17:42:00,
2013-06-05 12:47:00,63.8,60.8,29.97,SSE,152,2.0,6.0,90,0.00,,,0.13,Wunderground v.1.15,2013-06-05 17:47:00,
2013-06-05 12:53:00,63.9,60.6,29.97,SE,137,2.0,6.0,89,0.00,,,0.13,Wunderground v.1.15,2013-06-05 17:53:00,
2013-06-05 12:59:00,64.0,60.7,29.97,East,99,2.0,6.0,89,0.00,,,0.13,Wunderground v.1.15,2013-06-05 17:59:00,
2013-06-05 13:04:00,63.9,60.9,29.97,ESE,116,1.0,6.0,90,0.00,,,0.13,Wunderground v.1.15,2013-06-05 18:04:00,
2013-06-05 13:09:00,63.9,60.6,29.97,East,96,2.0,6.0,89,0.00,,,0.13,Wunderground v.1.15,2013-06-05 18:09:00,
2013-06-05 13:15:00,64.0,60.7,29.97,SE,124,2.0,6.0,89,0.00,,,0.13,Wunderground v.1.15,2013-06-05 18:15:00,
2013-06-05 13:21:00,64.5,61.2,29.97,ESE,107,1.0,6.0,89,0.00,,,0.13,Wunderground v.1.15,2013-06-05 18:21:00,
2013-06-05 13:27:00,64.5,60.5,29.97,SSE,166,1.0,6.0,87,0.00,,,0.13,Wunderground v.1.15,2013-06-05 18:27:00,
2013-06-05 13:32:00,64.2,60.6,29.97,ESE,120,2.0,6.0,88,0.00,,,0.13,Wunderground v.1.15,2013-06-05 18:32:00,
2013-06-05 13:37:00,63.9,60.3,29.97,ESE,113,1.0,6.0,88,0.00,,,0.13,Wunderground v.1.15,2013-06-05 18:37:00,
2013-06-05 13:43:00,63.7,60.1,29.97,East,96,1.0,6.0,88,0.00,,,0.13,Wunderground v.1.15,2013-06-05 18:43:00,
2013-06-05 13:48:00,63.7,60.1,29.97,South,170,1.0,6.0,88,0.00,,,0.13,Wunderground v.1.15,2013-06-05 18:48:00,
2013-06-05 13:53:00,63.8,60.5,29.97,SE,129,1.0,6.0,89,0.00,,,0.13,Wunderground v.1.15,2013-06-05 18:53:00,
2013-06-05 14:00:00,63.8,60.2,29.97,ESE,113,0.0,6.0,88,0.00,,,0.13,Wunderground v.1.15,2013-06-05 19:00:00,
2013-06-05 14:06:00,63.7,59.8,29.97,ESE,109,1.0,6.0,87,0.00,,,0.13,Wunderground v.1.15,2013-06-05 19:06:00,
2013-06-05 14:11:00,63.4,59.5,29.97,East,94,1.0,6.0,87,0.00,,,0.13,Wunderground v.1.15,2013-06-05 19:11:00,
2013-06-05 14:17:00,63.4,59.8,29.96,ESE,105,1.0,6.0,88,0.00,,,0.13,Wunderground v.1.15,2013-06-05 19:17:00,
2013-06-05 14:22:00,63.5,59.9,29.96,East,94,1.0,6.0,88,0.00,,,0.13,Wunderground v.1.15,2013-06-05 19:22:00,
2013-06-05 14:28:00,63.5,60.2,29.96,ESE,107,1.0,6.0,89,0.00,,,0.13,Wunderground v.1.15,2013-06-05 19:28:00,
2013-06-05 14:34:00,63.7,60.1,29.96,SE,142,1.0,6.0,88,0.00,,,0.13,Wunderground v.1.15,2013-06-05 19:34:00,
2013-06-05 14:39:00,63.9,60.0,29.96,ESE,121,1.0,6.0,87,0.00,,,0.13,Wunderground v.1.15,2013-06-05 19:39:00,
2013-06-05 14:44:00,64.1,60.2,29.95,ESE,105,1.0,6.0,87,0.00,,,0.13,Wunderground v.1.15,2013-06-05 19:44:00,
2013-06-05 14:50:00,64.1,59.8,29.95,ESE,120,1.0,1.0,86,0.00,,,0.13,Wunderground v.1.15,2013-06-05 19:50:00,
2013-06-05 14:55:00,64.3,60.7,29.95,ESE,118,1.0,6.0,88,0.00,,,0.13,Wunderground v.1.15,2013-06-05 19:55:00,
2013-06-05 15:00:00,64.5,60.5,29.95,SE,140,1.0,6.0,87,0.00,,,0.13,Wunderground v.1.15,2013-06-05 20:00:00,
2013-06-05 15:06:00,64.6,60.3,29.94,SE,131,1.0,6.0,86,0.00,,,0.13,Wunderground v.1.15,2013-06-05 20:06:00,
2013-06-05 15:12:00,64.7,60.4,29.95,ESE,111,2.0,6.0,86,0.00,,,0.13,Wunderground v.1.15,2013-06-05 20:12:00,
2013-06-05 15:17:00,65.0,60.7,29.94,ESE,109,1.0,6.0,86,0.00,,,0.13,Wunderground v.1.15,2013-06-05 20:17:00,
2013-06-05 15:23:00,65.1,60.5,29.94,ENE,62,2.0,6.0,85,0.00,,,0.13,Wunderground v.1.15,2013-06-05 20:23:00,
2013-06-05 15:29:00,65.0,60.4,29.94,South,181,2.0,6.0,85,0.00,,,0.13,Wunderground v.1.15,2013-06-05 20:29:00,
2013-06-05 15:35:00,65.1,60.5,29.94,ESE,103,2.0,6.0,85,0.00,,,0.13,Wunderground v.1.15,2013-06-05 20:35:00,
2013-06-05 15:40:00,65.9,61.6,29.93,SE,131,2.0,2.0,86,0.00,,,0.13,Wunderground v.1.15,2013-06-05 20:40:00,
2013-06-05 15:46:00,66.1,60.4,29.93,SE,126,2.0,6.0,82,0.00,,,0.13,Wunderground v.1.15,2013-06-05 20:46:00,
2013-06-05 15:51:00,66.1,60.8,29.93,SSE,158,2.0,6.0,83,0.00,,,0.13,Wunderground v.1.15,2013-06-05 20:51:00,
2013-06-05 15:58:00,66.3,61.0,29.93,SSE,148,1.0,6.0,83,0.00,,,0.13,Wunderground v.1.15,2013-06-05 20:58:00,
2013-06-05 16:04:00,66.7,60.7,29.93,ESE,105,1.0,6.0,81,0.00,,,0.13,Wunderground v.1.15,2013-06-05 21:04:00,
2013-06-05 16:10:00,66.6,60.2,29.92,SSE,148,2.0,2.0,80,0.00,,,0.13,Wunderground v.1.15,2013-06-05 21:10:00,
2013-06-05 16:15:00,66.8,61.5,29.92,ESE,103,2.0,6.0,83,0.00,,,0.13,Wunderground v.1.15,2013-06-05 21:15:00,
2013-06-05 16:20:00,67.0,60.6,29.92,SE,138,1.0,1.0,80,0.00,,,0.13,Wunderground v.1.15,2013-06-05 21:20:00,
2013-06-05 16:26:00,67.3,60.9,29.92,South,187,1.0,6.0,80,0.00,,,0.13,Wunderground v.1.15,2013-06-05 21:26:00,
2013-06-05 16:32:00,67.0,59.9,29.92,SSE,150,2.0,6.0,78,0.00,,,0.13,Wunderground v.1.15,2013-06-05 21:32:00,
2013-06-05 16:38:00,67.4,61.0,29.92,SE,139,1.0,6.0,80,0.00,,,0.13,Wunderground v.1.15,2013-06-05 21:38:00,
2013-06-05 16:43:00,67.9,60.8,29.92,ESE,117,0.0,6.0,78,0.00,,,0.13,Wunderground v.1.15,2013-06-05 21:43:00,
2013-06-05 16:49:00,67.6,60.5,29.92,ESE,121,1.0,6.0,78,0.00,,,0.13,Wunderground v.1.15,2013-06-05 21:49:00,
2013-06-05 16:55:00,67.5,60.0,29.92,ESE,105,1.0,6.0,77,0.00,,,0.13,Wunderground v.1.15,2013-06-05 21:55:00,
2013-06-05 17:02:00,68.0,61.2,29.92,East,100,1.0,6.0,79,0.00,,,0.13,Wunderground v.1.15,2013-06-05 22:02:00,
2013-06-05 17:08:00,67.8,60.7,29.92,East,100,1.0,6.0,78,0.00,,,0.13,Wunderground v.1.15,2013-06-05 22:08:00,
2013-06-05 17:14:00,67.4,60.7,29.92,SE,139,1.0,6.0,79,0.00,,,0.13,Wunderground v.1.15,2013-06-05 22:14:00,
2013-06-05 17:19:00,67.3,60.6,29.92,ESE,117,0.0,6.0,79,0.00,,,0.13,Wunderground v.1.15,2013-06-05 22:19:00,
2013-06-05 17:25:00,67.0,61.0,29.92,ESE,115,1.0,6.0,81,0.00,,,0.13,Wunderground v.1.15,2013-06-05 22:25:00,
2013-06-05 17:31:00,66.9,60.5,29.92,ESE,113,1.0,2.0,80,0.00,,,0.13,Wunderground v.1.15,2013-06-05 22:31:00,
2013-06-05 17:37:00,67.3,61.6,29.92,ESE,122,1.0,6.0,82,0.00,,,0.13,Wunderground v.1.15,2013-06-05 22:37:00,
2013-06-05 17:42:00,67.3,60.6,29.92,East,88,1.0,6.0,79,0.00,,,0.13,Wunderground v.1.15,2013-06-05 22:42:00,
2013-06-05 17:48:00,67.1,60.7,29.91,SE,135,1.0,6.0,80,0.00,,,0.13,Wunderground v.1.15,2013-06-05 22:48:00,
2013-06-05 17:53:00,67.0,60.6,29.91,ESE,103,1.0,6.0,80,0.00,,,0.13,Wunderground v.1.15,2013-06-05 22:53:00,
2013-06-05 17:59:00,66.9,60.5,29.91,ESE,113,2.0,6.0,80,0.00,,,0.13,Wunderground v.1.15,2013-06-05 22:59:00,
2013-06-05 18:05:00,67.3,61.3,29.91,ESE,121,2.0,6.0,81,0.00,,,0.13,Wunderground v.1.15,2013-06-05 23:05:00,
2013-06-05 18:11:00,68.4,60.5,29.91,SE,131,2.0,6.0,76,0.00,,,0.13,Wunderground v.1.15,2013-06-05 23:11:00,
2013-06-05 18:16:00,68.3,60.8,29.91,East,98,3.0,7.0,77,0.00,,,0.13,Wunderground v.1.15,2013-06-05 23:16:00,
2013-06-05 18:22:00,68.0,60.2,29.91,ESE,107,3.0,6.0,76,0.00,,,0.13,Wunderground v.1.15,2013-06-05 23:22:00,
2013-06-05 18:28:00,68.0,60.2,29.91,ESE,122,2.0,6.0,76,0.00,,,0.13,Wunderground v.1.15,2013-06-05 23:28:00,
2013-06-05 18:33:00,68.2,60.0,29.91,East,91,3.0,6.0,75,0.00,,,0.13,Wunderground v.1.15,2013-06-05 23:33:00,
2013-06-05 18:39:00,68.6,59.6,29.90,ESE,117,2.0,6.0,73,0.00,,,0.13,Wunderground v.1.15,2013-06-05 23:39:00,
2013-06-05 18:44:00,68.8,59.0,29.90,ENE,72,1.0,6.0,71,0.00,,,0.13,Wunderground v.1.15,2013-06-05 23:44:00,
2013-06-05 18:49:00,68.7,58.5,29.90,ESE,104,2.0,6.0,70,0.00,,,0.13,Wunderground v.1.15,2013-06-05 23:49:00,
2013-06-05 18:55:00,68.6,58.4,29.91,ESE,103,2.0,6.0,70,0.00,,,0.13,Wunderground v.1.15,2013-06-05 23:55:00,
2013-06-05 19:01:00,68.1,58.3,29.91,East,97,3.0,6.0,71,0.00,,,0.13,Wunderground v.1.15,2013-06-06 00:01:00,
2013-06-05 19:07:00,68.4,59.0,29.91,ESE,105,2.0,6.0,72,0.00,,,0.13,Wunderground v.1.15,2013-06-06 00:07:00,
2013-06-05 19:12:00,69.0,58.8,29.91,ESE,118,1.0,6.0,70,0.00,,,0.13,Wunderground v.1.15,2013-06-06 00:12:00,
2013-06-05 19:18:00,68.1,58.3,29.91,ESE,113,1.0,6.0,71,0.00,,,0.13,Wunderground v.1.15,2013-06-06 00:18:00,
2013-06-05 19:23:00,67.5,58.5,29.91,East,98,2.0,6.0,73,0.00,,,0.13,Wunderground v.1.15,2013-06-06 00:23:00,
2013-06-05 19:29:00,68.0,59.4,29.91,East,98,1.0,6.0,74,0.00,,,0.13,Wunderground v.1.15,2013-06-06 00:29:00,
2013-06-05 19:34:00,69.0,59.6,29.92,East,99,0.0,6.0,72,0.00,,,0.13,Wunderground v.1.15,2013-06-06 00:34:00,
2013-06-05 19:40:00,69.3,59.5,29.92,East,98,0.0,6.0,71,0.00,,,0.13,Wunderground v.1.15,2013-06-06 00:40:00,
2013-06-05 19:46:00,69.2,59.0,29.92,East,94,0.0,6.0,70,0.00,,,0.13,Wunderground v.1.15,2013-06-06 00:46:00,
2013-06-05 19:52:00,69.4,59.6,29.92,East,95,0.0,6.0,71,0.00,,,0.13,Wunderground v.1.15,2013-06-06 00:52:00,
2013-06-05 19:58:00,68.5,58.3,29.92,East,95,0.0,6.0,70,0.00,,,0.13,Wunderground v.1.15,2013-06-06 00:58:00,
2013-06-05 20:04:00,67.5,58.5,29.92,ESE,108,0.0,6.0,73,0.00,,,0.13,Wunderground v.1.15,2013-06-06 01:04:00,
2013-06-05 20:09:00,66.6,58.1,29.92,ESE,109,0.0,6.0,74,0.00,,,0.13,Wunderground v.1.15,2013-06-06 01:09:00,
2013-06-05 20:15:00,65.8,57.7,29.92,ESE,109,0.0,6.0,75,0.00,,,0.13,Wunderground v.1.15,2013-06-06 01:15:00,
2013-06-05 20:21:00,65.2,57.4,29.92,ESE,108,0.0,6.0,76,0.00,,,0.13,Wunderground v.1.15,2013-06-06 01:21:00,
2013-06-05 20:27:00,64.8,57.4,29.92,ESE,108,0.0,6.0,77,0.00,,,0.13,Wunderground v.1.15,2013-06-06 01:27:00,
2013-06-05 20:33:00,64.4,57.7,29.92,ESE,109,0.0,6.0,79,0.00,,,0.13,Wunderground v.1.15,2013-06-06 01:33:00,
2013-06-05 20:39:00,64.0,57.4,29.92,ESE,108,0.0,6.0,79,0.00,,,0.13,Wunderground v.1.15,2013-06-06 01:39:00,
2013-06-05 20:44:00,63.9,56.9,29.92,ESE,121,0.0,6.0,78,0.00,,,0.13,Wunderground v.1.15,2013-06-06 01:44:00,
2013-06-05 20:49:00,63.9,57.3,29.92,ESE,105,0.0,6.0,79,0.00,,,0.13,Wunderground v.1.15,2013-06-06 01:49:00,
2013-06-05 20:55:00,64.0,57.0,29.92,ESE,114,0.0,6.0,78,0.00,,,0.13,Wunderground v.1.15,2013-06-06 01:55:00,
2013-06-05 21:00:00,63.9,56.9,29.92,ESE,111,0.0,6.0,78,0.00,,,0.13,Wunderground v.1.15,2013-06-06 02:00:00,
2013-06-05 21:06:00,63.6,56.6,29.92,ESE,111,0.0,6.0,78,0.00,,,0.13,Wunderground v.1.15,2013-06-06 02:06:00,
2013-06-05 21:11:00,63.6,56.6,29.92,ESE,105,0.0,6.0,78,0.00,,,0.13,Wunderground v.1.15,2013-06-06 02:11:00,
2013-06-05 21:17:00,63.5,56.2,29.93,ESE,105,0.0,6.0,77,0.00,,,0.13,Wunderground v.1.15,2013-06-06 02:17:00,
2013-06-05 21:23:00,63.5,55.8,29.93,SE,131,1.0,6.0,76,0.00,,,0.13,Wunderground v.1.15,2013-06-06 02:23:00,
2013-06-05 21:28:00,63.5,55.4,29.93,ESE,107,1.0,6.0,75,0.00,,,0.13,Wunderground v.1.15,2013-06-06 02:28:00,
2013-06-05 21:34:00,63.5,55.1,29.93,ESE,120,1.0,6.0,74,0.00,,,0.13,Wunderground v.1.15,2013-06-06 02:34:00,
2013-06-05 21:39:00,63.3,54.9,29.93,ESE,118,1.0,6.0,74,0.00,,,0.13,Wunderground v.1.15,2013-06-06 02:39:00,
2013-06-05 21:45:00,62.9,54.9,29.93,East,94,1.0,6.0,75,0.00,,,0.13,Wunderground v.1.15,2013-06-06 02:45:00,
2013-06-05 21:51:00,62.7,54.7,29.94,East,100,1.0,6.0,75,0.00,,,0.13,Wunderground v.1.15,2013-06-06 02:51:00,
2013-06-05 21:56:00,62.4,54.7,29.94,ESE,118,1.0,6.0,76,0.00,,,0.13,Wunderground v.1.15,2013-06-06 02:56:00,
2013-06-05 22:02:00,62.0,54.7,29.94,ESE,104,1.0,6.0,77,0.00,,,0.13,Wunderground v.1.15,2013-06-06 03:02:00,
2013-06-05 22:08:00,61.6,54.7,29.94,ESE,103,0.0,6.0,78,0.00,,,0.13,Wunderground v.1.15,2013-06-06 03:08:00,
2013-06-05 22:14:00,61.2,54.3,29.94,ESE,103,0.0,6.0,78,0.00,,,0.13,Wunderground v.1.15,2013-06-06 03:14:00,
2013-06-05 22:20:00,60.7,54.5,29.94,ESE,103,0.0,6.0,80,0.00,,,0.13,Wunderground v.1.15,2013-06-06 03:20:00,
2013-06-05 22:25:00,60.3,54.1,29.95,ESE,103,0.0,6.0,80,0.00,,,0.13,Wunderground v.1.15,2013-06-06 03:25:00,
2013-06-05 22:31:00,60.1,54.2,29.95,ESE,103,0.0,6.0,81,0.00,,,0.13,Wunderground v.1.15,2013-06-06 03:31:00,
2013-06-05 22:37:00,60.0,54.5,29.95,ESE,103,0.0,6.0,82,0.00,,,0.13,Wunderground v.1.15,2013-06-06 03:37:00,
2013-06-05 22:43:00,60.0,54.5,29.95,East,101,0.0,6.0,82,0.00,,,0.13,Wunderground v.1.15,2013-06-06 03:43:00,
2013-06-05 22:49:00,60.2,54.7,29.95,East,96,1.0,6.0,82,0.00,,,0.13,Wunderground v.1.15,2013-06-06 03:49:00,
2013-06-05 22:55:00,60.5,54.6,29.95,ESE,104,1.0,6.0,81,0.00,,,0.13,Wunderground v.1.15,2013-06-06 03:55:00,
2013-06-05 23:00:00,60.7,54.5,29.95,ESE,107,0.0,6.0,80,0.00,,,0.13,Wunderground v.1.15,2013-06-06 04:00:00,
2013-06-05 23:01:00,60.7,54.8,29.95,ESE,108,0.0,6.0,81,0.00,,,0.13,Wunderground v.1.15,2013-06-06 04:01:00,
2013-06-05 23:03:00,60.7,54.8,29.95,SE,131,0.0,6.0,81,0.00,,,0.13,Wunderground v.1.15,2013-06-06 04:03:00,
2013-06-05 23:04:00,60.7,54.8,29.95,SE,130,0.0,6.0,81,0.00,,,0.13,Wunderground v.1.15,2013-06-06 04:04:00,
2013-06-05 23:06:00,60.7,54.5,29.95,ESE,113,0.0,6.0,80,0.00,,,0.13,Wunderground v.1.15,2013-06-06 04:06:00,
2013-06-05 23:10:00,60.8,54.6,29.95,ESE,113,0.0,6.0,80,0.00,,,0.13,Wunderground v.1.15,2013-06-06 04:10:00,
2013-06-05 23:16:00,60.8,54.6,29.95,ESE,113,0.0,6.0,80,0.00,,,0.13,Wunderground v.1.15,2013-06-06 04:16:00,
2013-06-05 23:21:00,60.7,54.5,29.95,ESE,113,0.0,6.0,80,0.00,,,0.13,Wunderground v.1.15,2013-06-06 04:21:00,
2013-06-05 23:26:00,60.5,54.3,29.95,ESE,113,0.0,6.0,80,0.00,,,0.13,Wunderground v.1.15,2013-06-06 04:26:00,
2013-06-05 23:32:00,60.4,54.5,29.94,ESE,113,0.0,6.0,81,0.00,,,0.13,Wunderground v.1.15,2013-06-06 04:32:00,
2013-06-05 23:38:00,60.3,54.4,29.94,ESE,113,0.0,6.0,81,0.00,,,0.13,Wunderground v.1.15,2013-06-06 04:38:00,
2013-06-05 23:44:00,60.2,54.7,29.94,ESE,114,0.0,6.0,82,0.00,,,0.13,Wunderground v.1.15,2013-06-06 04:44:00,
2013-06-05 23:50:00,59.9,54.7,29.95,ESE,113,0.0,6.0,83,0.00,,,0.13,Wunderground v.1.15,2013-06-06 04:50:00,
2013-06-05 23:55:00,59.6,54.4,29.95,ESE,114,0.0,6.0,83,0.00,,,0.13,Wunderground v.1.15,2013-06-06 04:55:00,